sensor_id;sensor_type;location;lat;lon;timestamp;pressure;altitude;pressure_sealevel;temperature;humidity
23253;BME280;11795;47.054;15.408;2023-03-22T00:00:00;97320;;;9.6;60.8
23253;BME280;11795;47.054;15.408;2023-03-22T00:02:01;97320;;;9.8;60.6
23253;BME280;11795;47.054;15.408;2023-03-22T00:04:00;97320;;;9.7;60.7
23253;BME280;11795;47.054;15.408;2023-03-22T00:06:00;97310;;;9.6;61.2
23253;BME280;11795;47.054;15.408;2023-03-22T00:08:05;97310;;;9.7;60.8
23253;BME280;11795;47.054;15.408;2023-03-22T00:10:00;97320;;;9.5;61.4
23253;BME280;11795;47.054;15.408;2023-03-22T00:12:00;97310;;;9.6;61.4
23253;BME280;11795;47.054;15.408;2023-03-22T00:14:00;97310;;;9.5;61.4
23253;BME280;11795;47.054;15.408;2023-03-22T00:16:02;97310;;;9.4;61.8
23253;BME280;11795;47.054;15.408;2023-03-22T00:18:01;97310;;;9.5;61.3
23253;BME280;11795;47.054;15.408;2023-03-22T00:20:01;97310;;;9.3;61.8
23253;BME280;11795;47.054;15.408;2023-03-22T00:22:01;97310;;;9.4;61.8
23253;BME280;11795;47.054;15.408;2023-03-22T00:24:00;97310;;;9.3;61.8
23253;BME280;11795;47.054;15.408;2023-03-22T00:26:00;97300;;;9.2;62.2
23253;BME280;11795;47.054;15.408;2023-03-22T00:28:00;97300;;;9.3;61.9
23253;BME280;11795;47.054;15.408;2023-03-22T00:30:00;97300;;;9.2;62.4
23253;BME280;11795;47.054;15.408;2023-03-22T00:32:00;97300;;;9.3;62.4
23253;BME280;11795;47.054;15.408;2023-03-22T00:34:00;97290;;;9.2;62.7
23253;BME280;11795;47.054;15.408;2023-03-22T00:36:02;97300;;;9.0;63.1
23253;BME280;11795;47.054;15.408;2023-03-22T00:38:05;97290;;;9.2;62.7
23253;BME280;11795;47.054;15.408;2023-03-22T00:40:00;97290;;;9.0;63.0
23253;BME280;11795;47.054;15.408;2023-03-22T00:42:02;97280;;;9.1;63.0
23253;BME280;11795;47.054;15.408;2023-03-22T00:44:00;97290;;;9.0;63.0
23253;BME280;11795;47.054;15.408;2023-03-22T00:46:00;97280;;;8.9;63.2
23253;BME280;11795;47.054;15.408;2023-03-22T00:48:00;97280;;;9.1;62.6
23253;BME280;11795;47.054;15.408;2023-03-22T00:50:02;97280;;;8.9;62.9
23253;BME280;11795;47.054;15.408;2023-03-22T00:52:00;97280;;;8.9;63.1
23253;BME280;11795;47.054;15.408;2023-03-22T00:54:00;97280;;;8.9;63.3
23253;BME280;11795;47.054;15.408;2023-03-22T00:56:00;97280;;;8.7;63.8
23253;BME280;11795;47.054;15.408;2023-03-22T00:58:00;97280;;;8.9;63.1
23253;BME280;11795;47.054;15.408;2023-03-22T01:00:09;97280;;;8.7;63.5
23253;BME280;11795;47.054;15.408;2023-03-22T01:02:03;97280;;;8.8;63.7
23253;BME280;11795;47.054;15.408;2023-03-22T01:04:01;97280;;;8.7;63.6
23253;BME280;11795;47.054;15.408;2023-03-22T01:06:01;97280;;;8.6;64.0
23253;BME280;11795;47.054;15.408;2023-03-22T01:08:03;97280;;;8.8;63.5
23253;BME280;11795;47.054;15.408;2023-03-22T01:10:00;97280;;;8.7;63.9
23253;BME280;11795;47.054;15.408;2023-03-22T01:12:01;97270;;;8.7;63.9
23253;BME280;11795;47.054;15.408;2023-03-22T01:14:00;97270;;;8.7;64.1
23253;BME280;11795;47.054;15.408;2023-03-22T01:16:00;97270;;;8.6;64.6
23253;BME280;11795;47.054;15.408;2023-03-22T01:18:00;97270;;;8.8;63.9
23253;BME280;11795;47.054;15.408;2023-03-22T01:20:00;97270;;;8.6;64.2
23253;BME280;11795;47.054;15.408;2023-03-22T01:22:00;97260;;;8.7;64.1
23253;BME280;11795;47.054;15.408;2023-03-22T01:24:00;97260;;;8.6;64.2
23253;BME280;11795;47.054;15.408;2023-03-22T01:26:00;97260;;;8.5;64.6
23253;BME280;11795;47.054;15.408;2023-03-22T01:28:02;97260;;;8.7;64.0
23253;BME280;11795;47.054;15.408;2023-03-22T01:30:01;97260;;;8.6;64.4
23253;BME280;11795;47.054;15.408;2023-03-22T01:32:00;97260;;;8.6;64.5
23253;BME280;11795;47.054;15.408;2023-03-22T01:34:00;97260;;;8.6;64.4
23253;BME280;11795;47.054;15.408;2023-03-22T01:36:00;97250;;;8.5;65.1
23253;BME280;11795;47.054;15.408;2023-03-22T01:38:00;97250;;;8.7;64.6
23253;BME280;11795;47.054;15.408;2023-03-22T01:40:00;97250;;;8.4;65.7
23253;BME280;11795;47.054;15.408;2023-03-22T01:42:01;97250;;;8.5;65.5
23253;BME280;11795;47.054;15.408;2023-03-22T01:44:05;97250;;;8.5;65.6
23253;BME280;11795;47.054;15.408;2023-03-22T01:46:01;97250;;;8.4;66.0
23253;BME280;11795;47.054;15.408;2023-03-22T01:48:03;97240;;;8.5;65.4
23253;BME280;11795;47.054;15.408;2023-03-22T01:50:01;97250;;;8.4;65.9
23253;BME280;11795;47.054;15.408;2023-03-22T01:52:04;97240;;;8.4;65.9
23253;BME280;11795;47.054;15.408;2023-03-22T01:54:02;97240;;;8.4;65.8
23253;BME280;11795;47.054;15.408;2023-03-22T01:56:01;97240;;;8.3;66.2
23253;BME280;11795;47.054;15.408;2023-03-22T01:58:01;97240;;;8.5;65.6
23253;BME280;11795;47.054;15.408;2023-03-22T02:00:04;97240;;;8.3;65.9
23253;BME280;11795;47.054;15.408;2023-03-22T02:02:02;97240;;;8.3;66.2
23253;BME280;11795;47.054;15.408;2023-03-22T02:04:07;97240;;;8.4;65.9
23253;BME280;11795;47.054;15.408;2023-03-22T02:06:00;97240;;;8.3;66.2
23253;BME280;11795;47.054;15.408;2023-03-22T02:08:01;97240;;;8.4;65.7
23253;BME280;11795;47.054;15.408;2023-03-22T02:10:00;97240;;;8.3;66.2
23253;BME280;11795;47.054;15.408;2023-03-22T02:12:08;97240;;;8.3;66.3
23253;BME280;11795;47.054;15.408;2023-03-22T02:14:13;97240;;;8.3;66.0
23253;BME280;11795;47.054;15.408;2023-03-22T02:16:09;97250;;;8.2;66.2
23253;BME280;11795;47.054;15.408;2023-03-22T02:18:11;97250;;;8.3;66.5
23253;BME280;11795;47.054;15.408;2023-03-22T02:20:28;97250;;;8.1;66.8
23253;BME280;11795;47.054;15.408;2023-03-22T02:22:16;97250;;;8.1;67.3
23253;BME280;11795;47.054;15.408;2023-03-22T02:26:16;97250;;;8.1;67.1
23253;BME280;11795;47.054;15.408;2023-03-22T02:28:12;97250;;;8.2;66.7
23253;BME280;11795;47.054;15.408;2023-03-22T02:30:17;97250;;;8.0;67.6
23253;BME280;11795;47.054;15.408;2023-03-22T02:32:20;97250;;;8.0;67.6
23253;BME280;11795;47.054;15.408;2023-03-22T02:40:05;97250;;;7.9;67.7
23253;BME280;11795;47.054;15.408;2023-03-22T02:42:10;97250;;;7.9;67.9
23253;BME280;11795;47.054;15.408;2023-03-22T02:44:05;97250;;;8.0;67.3
23253;BME280;11795;47.054;15.408;2023-03-22T02:46:04;97240;;;8.0;67.7
23253;BME280;11795;47.054;15.408;2023-03-22T02:48:05;97240;;;8.2;66.9
23253;BME280;11795;47.054;15.408;2023-03-22T02:50:04;97240;;;8.0;67.4
23253;BME280;11795;47.054;15.408;2023-03-22T02:52:05;97250;;;7.9;67.9
23253;BME280;11795;47.054;15.408;2023-03-22T02:54:03;97240;;;8.0;67.9
23253;BME280;11795;47.054;15.408;2023-03-22T02:56:02;97240;;;7.9;68.4
23253;BME280;11795;47.054;15.408;2023-03-22T02:58:03;97240;;;8.1;67.4
23253;BME280;11795;47.054;15.408;2023-03-22T03:00:03;97250;;;8.0;67.8
23253;BME280;11795;47.054;15.408;2023-03-22T03:02:02;97240;;;7.9;68.2
23253;BME280;11795;47.054;15.408;2023-03-22T03:04:03;97250;;;8.0;67.8
23253;BME280;11795;47.054;15.408;2023-03-22T03:06:03;97250;;;7.9;68.2
23253;BME280;11795;47.054;15.408;2023-03-22T03:08:02;97250;;;8.1;67.7
23253;BME280;11795;47.054;15.408;2023-03-22T03:10:01;97250;;;7.9;68.0
23253;BME280;11795;47.054;15.408;2023-03-22T03:12:00;97250;;;7.9;68.2
23253;BME280;11795;47.054;15.408;2023-03-22T03:14:00;97250;;;8.0;68.0
23253;BME280;11795;47.054;15.408;2023-03-22T03:16:01;97250;;;7.9;68.4
23253;BME280;11795;47.054;15.408;2023-03-22T03:18:15;97250;;;8.1;67.8
23253;BME280;11795;47.054;15.408;2023-03-22T03:20:12;97250;;;7.9;68.0
23253;BME280;11795;47.054;15.408;2023-03-22T03:22:06;97250;;;7.8;68.3
23253;BME280;11795;47.054;15.408;2023-03-22T03:24:12;97250;;;7.9;67.8
23253;BME280;11795;47.054;15.408;2023-03-22T03:26:02;97250;;;7.9;68.3
23253;BME280;11795;47.054;15.408;2023-03-22T03:28:04;97260;;;8.0;67.8
23253;BME280;11795;47.054;15.408;2023-03-22T03:30:04;97260;;;7.8;68.3
23253;BME280;11795;47.054;15.408;2023-03-22T03:32:05;97260;;;7.7;68.8
23253;BME280;11795;47.054;15.408;2023-03-22T03:34:08;97260;;;7.8;68.4
23253;BME280;11795;47.054;15.408;2023-03-22T03:36:05;97260;;;7.7;69.0
23253;BME280;11795;47.054;15.408;2023-03-22T03:38:04;97260;;;7.9;68.6
23253;BME280;11795;47.054;15.408;2023-03-22T03:40:05;97260;;;7.7;69.0
23253;BME280;11795;47.054;15.408;2023-03-22T03:42:01;97260;;;7.6;69.3
23253;BME280;11795;47.054;15.408;2023-03-22T03:44:01;97250;;;7.7;68.9
23253;BME280;11795;47.054;15.408;2023-03-22T03:46:00;97250;;;7.6;69.3
23253;BME280;11795;47.054;15.408;2023-03-22T03:48:04;97250;;;7.8;68.6
23253;BME280;11795;47.054;15.408;2023-03-22T03:50:00;97260;;;7.7;68.9
23253;BME280;11795;47.054;15.408;2023-03-22T03:52:03;97260;;;7.6;69.3
23253;BME280;11795;47.054;15.408;2023-03-22T03:54:00;97260;;;7.7;69.1
23253;BME280;11795;47.054;15.408;2023-03-22T03:56:00;97260;;;7.6;69.5
23253;BME280;11795;47.054;15.408;2023-03-22T03:58:00;97260;;;7.7;68.9
23253;BME280;11795;47.054;15.408;2023-03-22T04:00:00;97260;;;7.6;69.4
23253;BME280;11795;47.054;15.408;2023-03-22T04:02:00;97260;;;7.5;70.0
23253;BME280;11795;47.054;15.408;2023-03-22T04:04:00;97260;;;7.6;69.5
23253;BME280;11795;47.054;15.408;2023-03-22T04:06:00;97260;;;7.5;69.8
23253;BME280;11795;47.054;15.408;2023-03-22T04:08:00;97260;;;7.7;69.1
23253;BME280;11795;47.054;15.408;2023-03-22T04:10:00;97260;;;7.6;69.5
23253;BME280;11795;47.054;15.408;2023-03-22T04:12:00;97260;;;7.5;69.8
23253;BME280;11795;47.054;15.408;2023-03-22T04:14:00;97260;;;7.7;69.5
23253;BME280;11795;47.054;15.408;2023-03-22T04:16:01;97260;;;7.6;70.0
23253;BME280;11795;47.054;15.408;2023-03-22T04:18:00;97260;;;7.8;69.7
23253;BME280;11795;47.054;15.408;2023-03-22T04:20:08;97260;;;7.6;70.4
23253;BME280;11795;47.054;15.408;2023-03-22T04:22:01;97260;;;7.5;70.5
23253;BME280;11795;47.054;15.408;2023-03-22T04:24:00;97270;;;7.7;69.8
23253;BME280;11795;47.054;15.408;2023-03-22T04:26:00;97270;;;7.6;70.2
23253;BME280;11795;47.054;15.408;2023-03-22T04:28:04;97270;;;7.8;69.7
23253;BME280;11795;47.054;15.408;2023-03-22T04:30:00;97270;;;7.7;70.0
23253;BME280;11795;47.054;15.408;2023-03-22T04:32:00;97280;;;7.6;70.3
23253;BME280;11795;47.054;15.408;2023-03-22T04:34:04;97270;;;7.8;69.6
23253;BME280;11795;47.054;15.408;2023-03-22T04:36:00;97270;;;7.7;70.0
23253;BME280;11795;47.054;15.408;2023-03-22T04:38:00;97270;;;7.9;69.5
23253;BME280;11795;47.054;15.408;2023-03-22T04:40:00;97270;;;7.7;70.0
23253;BME280;11795;47.054;15.408;2023-03-22T04:42:01;97280;;;7.6;70.4
23253;BME280;11795;47.054;15.408;2023-03-22T04:44:03;97270;;;7.8;69.8
23253;BME280;11795;47.054;15.408;2023-03-22T04:46:00;97280;;;7.7;70.1
23253;BME280;11795;47.054;15.408;2023-03-22T04:48:00;97270;;;7.9;69.8
23253;BME280;11795;47.054;15.408;2023-03-22T04:50:00;97270;;;7.8;70.0
23253;BME280;11795;47.054;15.408;2023-03-22T04:52:00;97270;;;7.7;70.3
23253;BME280;11795;47.054;15.408;2023-03-22T04:54:00;97270;;;7.8;69.8
23253;BME280;11795;47.054;15.408;2023-03-22T04:56:01;97270;;;7.7;70.2
23253;BME280;11795;47.054;15.408;2023-03-22T04:58:00;97270;;;7.9;69.6
23253;BME280;11795;47.054;15.408;2023-03-22T05:00:00;97270;;;7.8;69.9
23253;BME280;11795;47.054;15.408;2023-03-22T05:02:00;97270;;;7.8;70.1
23253;BME280;11795;47.054;15.408;2023-03-22T05:04:00;97270;;;7.8;69.8
23253;BME280;11795;47.054;15.408;2023-03-22T05:06:01;97270;;;7.7;70.3
23253;BME280;11795;47.054;15.408;2023-03-22T05:08:00;97270;;;7.9;69.8
23253;BME280;11795;47.054;15.408;2023-03-22T05:10:00;97260;;;7.9;70.3
23253;BME280;11795;47.054;15.408;2023-03-22T05:12:00;97270;;;8.3;70.4
23253;BME280;11795;47.054;15.408;2023-03-22T05:14:01;97270;;;8.6;68.4
23253;BME280;11795;47.054;15.408;2023-03-22T05:16:01;97270;;;8.6;67.7
23253;BME280;11795;47.054;15.408;2023-03-22T05:18:00;97270;;;8.9;67.1
23253;BME280;11795;47.054;15.408;2023-03-22T05:20:08;97270;;;8.8;67.0
23253;BME280;11795;47.054;15.408;2023-03-22T05:22:01;97270;;;8.7;67.2
23253;BME280;11795;47.054;15.408;2023-03-22T05:24:01;97270;;;8.7;66.8
23253;BME280;11795;47.054;15.408;2023-03-22T05:26:03;97280;;;8.6;67.4
23253;BME280;11795;47.054;15.408;2023-03-22T05:28:01;97280;;;8.7;67.3
23253;BME280;11795;47.054;15.408;2023-03-22T05:30:01;97270;;;8.5;67.7
23253;BME280;11795;47.054;15.408;2023-03-22T05:32:00;97280;;;8.4;68.1
23253;BME280;11795;47.054;15.408;2023-03-22T05:34:00;97280;;;8.5;67.5
23253;BME280;11795;47.054;15.408;2023-03-22T05:36:00;97280;;;8.4;68.0
23253;BME280;11795;47.054;15.408;2023-03-22T05:38:00;97280;;;8.7;67.3
23253;BME280;11795;47.054;15.408;2023-03-22T05:40:00;97280;;;8.6;67.7
23253;BME280;11795;47.054;15.408;2023-03-22T05:42:00;97280;;;8.5;67.9
23253;BME280;11795;47.054;15.408;2023-03-22T05:44:00;97280;;;8.6;67.4
23253;BME280;11795;47.054;15.408;2023-03-22T05:46:04;97280;;;8.6;67.6
23253;BME280;11795;47.054;15.408;2023-03-22T05:48:00;97280;;;8.7;67.4
23253;BME280;11795;47.054;15.408;2023-03-22T05:50:00;97280;;;8.5;67.9
23253;BME280;11795;47.054;15.408;2023-03-22T05:52:03;97280;;;8.5;68.3
23253;BME280;11795;47.054;15.408;2023-03-22T05:54:00;97280;;;8.6;67.6
23253;BME280;11795;47.054;15.408;2023-03-22T05:56:01;97280;;;8.6;67.9
23253;BME280;11795;47.054;15.408;2023-03-22T05:58:01;97280;;;8.8;67.4
23253;BME280;11795;47.054;15.408;2023-03-22T06:00:00;97290;;;8.6;67.8
23253;BME280;11795;47.054;15.408;2023-03-22T06:02:00;97290;;;8.6;68.1
23253;BME280;11795;47.054;15.408;2023-03-22T06:04:00;97290;;;8.8;67.7
23253;BME280;11795;47.054;15.408;2023-03-22T06:06:00;97290;;;8.7;68.0
23253;BME280;11795;47.054;15.408;2023-03-22T06:08:01;97300;;;8.9;67.6
23253;BME280;11795;47.054;15.408;2023-03-22T06:10:00;97290;;;8.8;68.0
23253;BME280;11795;47.054;15.408;2023-03-22T06:12:00;97290;;;8.8;68.3
23253;BME280;11795;47.054;15.408;2023-03-22T06:14:00;97290;;;8.9;67.4
23253;BME280;11795;47.054;15.408;2023-03-22T06:16:02;97290;;;8.9;67.8
23253;BME280;11795;47.054;15.408;2023-03-22T06:18:00;97290;;;9.1;67.2
23253;BME280;11795;47.054;15.408;2023-03-22T06:20:01;97290;;;9.0;67.2
23253;BME280;11795;47.054;15.408;2023-03-22T06:22:00;97290;;;9.0;67.7
23253;BME280;11795;47.054;15.408;2023-03-22T06:24:00;97290;;;9.1;67.3
23253;BME280;11795;47.054;15.408;2023-03-22T06:26:00;97290;;;9.0;67.7
23253;BME280;11795;47.054;15.408;2023-03-22T06:28:01;97300;;;9.3;67.3
23253;BME280;11795;47.054;15.408;2023-03-22T06:30:01;97300;;;9.1;67.3
23253;BME280;11795;47.054;15.408;2023-03-22T06:32:00;97300;;;9.1;67.7
23253;BME280;11795;47.054;15.408;2023-03-22T06:34:00;97300;;;9.3;67.1
23253;BME280;11795;47.054;15.408;2023-03-22T06:36:01;97300;;;9.2;67.6
23253;BME280;11795;47.054;15.408;2023-03-22T06:38:00;97300;;;9.5;66.9
23253;BME280;11795;47.054;15.408;2023-03-22T06:40:00;97300;;;9.4;67.0
23253;BME280;11795;47.054;15.408;2023-03-22T06:42:00;97300;;;9.5;66.8
23253;BME280;11795;47.054;15.408;2023-03-22T06:44:01;97310;;;9.7;65.8
23253;BME280;11795;47.054;15.408;2023-03-22T06:46:00;97310;;;9.6;66.2
23253;BME280;11795;47.054;15.408;2023-03-22T06:48:00;97310;;;9.9;65.4
23253;BME280;11795;47.054;15.408;2023-03-22T06:50:00;97310;;;9.9;64.9
23253;BME280;11795;47.054;15.408;2023-03-22T06:52:00;97310;;;9.9;65.1
23253;BME280;11795;47.054;15.408;2023-03-22T06:54:01;97310;;;10.2;63.9
23253;BME280;11795;47.054;15.408;2023-03-22T06:56:00;97310;;;10.1;64.5
23253;BME280;11795;47.054;15.408;2023-03-22T06:58:00;97310;;;10.4;64.0
23253;BME280;11795;47.054;15.408;2023-03-22T07:00:00;97310;;;10.3;64.0
23253;BME280;11795;47.054;15.408;2023-03-22T07:02:01;97310;;;10.3;64.2
23253;BME280;11795;47.054;15.408;2023-03-22T07:04:00;97310;;;10.5;63.5
23253;BME280;11795;47.054;15.408;2023-03-22T07:06:01;97310;;;10.5;63.8
23253;BME280;11795;47.054;15.408;2023-03-22T07:08:01;97310;;;10.7;64.1
23253;BME280;11795;47.054;15.408;2023-03-22T07:10:00;97320;;;10.6;64.8
23253;BME280;11795;47.054;15.408;2023-03-22T07:12:00;97320;;;10.6;64.8
23253;BME280;11795;47.054;15.408;2023-03-22T07:14:00;97330;;;10.8;63.7
23253;BME280;11795;47.054;15.408;2023-03-22T07:16:01;97330;;;10.7;64.6
23253;BME280;11795;47.054;15.408;2023-03-22T07:18:00;97320;;;10.9;64.0
23253;BME280;11795;47.054;15.408;2023-03-22T07:20:01;97330;;;10.9;63.7
23253;BME280;11795;47.054;15.408;2023-03-22T07:22:00;97330;;;10.8;64.0
23253;BME280;11795;47.054;15.408;2023-03-22T07:24:00;97330;;;11.0;63.9
23253;BME280;11795;47.054;15.408;2023-03-22T07:26:00;97320;;;10.9;64.2
23253;BME280;11795;47.054;15.408;2023-03-22T07:28:00;97320;;;11.2;63.8
23253;BME280;11795;47.054;15.408;2023-03-22T07:30:00;97320;;;11.0;62.8
23253;BME280;11795;47.054;15.408;2023-03-22T07:32:00;97320;;;11.0;63.3
23253;BME280;11795;47.054;15.408;2023-03-22T07:34:01;97320;;;11.2;63.1
23253;BME280;11795;47.054;15.408;2023-03-22T07:36:00;97320;;;11.1;63.9
23253;BME280;11795;47.054;15.408;2023-03-22T07:38:01;97320;;;11.3;62.9
23253;BME280;11795;47.054;15.408;2023-03-22T07:40:00;97320;;;11.1;62.3
23253;BME280;11795;47.054;15.408;2023-03-22T07:42:00;97320;;;11.1;62.5
23253;BME280;11795;47.054;15.408;2023-03-22T07:44:00;97320;;;11.3;62.3
23253;BME280;11795;47.054;15.408;2023-03-22T07:46:00;97320;;;11.3;62.4
23253;BME280;11795;47.054;15.408;2023-03-22T07:48:00;97320;;;11.5;61.8
23253;BME280;11795;47.054;15.408;2023-03-22T07:50:00;97330;;;11.5;61.8
23253;BME280;11795;47.054;15.408;2023-03-22T07:52:00;97320;;;11.5;61.8
23253;BME280;11795;47.054;15.408;2023-03-22T07:54:00;97320;;;11.7;61.2
23253;BME280;11795;47.054;15.408;2023-03-22T07:56:01;97320;;;11.6;61.2
23253;BME280;11795;47.054;15.408;2023-03-22T07:58:01;97310;;;11.9;61.1
23253;BME280;11795;47.054;15.408;2023-03-22T08:00:01;97320;;;11.8;61.0
23253;BME280;11795;47.054;15.408;2023-03-22T08:02:00;97320;;;11.8;61.3
23253;BME280;11795;47.054;15.408;2023-03-22T08:04:00;97320;;;12.0;60.7
23253;BME280;11795;47.054;15.408;2023-03-22T08:06:06;97320;;;11.9;60.8
23253;BME280;11795;47.054;15.408;2023-03-22T08:08:01;97320;;;12.2;60.4
23253;BME280;11795;47.054;15.408;2023-03-22T08:10:01;97320;;;12.2;59.4
23253;BME280;11795;47.054;15.408;2023-03-22T08:12:00;97320;;;12.2;59.4
23253;BME280;11795;47.054;15.408;2023-03-22T08:14:00;97320;;;12.3;59.3
23253;BME280;11795;47.054;15.408;2023-03-22T08:16:00;97320;;;12.3;58.8
23253;BME280;11795;47.054;15.408;2023-03-22T08:18:00;97320;;;12.3;59.1
23253;BME280;11795;47.054;15.408;2023-03-22T08:20:08;97320;;;12.2;58.9
23253;BME280;11795;47.054;15.408;2023-03-22T08:22:00;97320;;;12.2;59.4
23253;BME280;11795;47.054;15.408;2023-03-22T08:24:00;97320;;;12.5;59.0
23253;BME280;11795;47.054;15.408;2023-03-22T08:26:00;97310;;;12.5;59.0
23253;BME280;11795;47.054;15.408;2023-03-22T08:28:00;97310;;;12.7;58.4
23253;BME280;11795;47.054;15.408;2023-03-22T08:30:02;97310;;;12.7;58.1
23253;BME280;11795;47.054;15.408;2023-03-22T08:32:01;97310;;;12.6;58.4
23253;BME280;11795;47.054;15.408;2023-03-22T08:34:00;97310;;;12.9;57.5
23253;BME280;11795;47.054;15.408;2023-03-22T08:36:05;97320;;;12.9;57.8
23253;BME280;11795;47.054;15.408;2023-03-22T08:38:00;97310;;;13.1;57.3
23253;BME280;11795;47.054;15.408;2023-03-22T08:40:00;97310;;;13.2;56.6
23253;BME280;11795;47.054;15.408;2023-03-22T08:42:00;97310;;;13.2;56.2
23253;BME280;11795;47.054;15.408;2023-03-22T08:44:00;97310;;;13.5;55.7
23253;BME280;11795;47.054;15.408;2023-03-22T08:46:00;97310;;;13.5;55.8
23253;BME280;11795;47.054;15.408;2023-03-22T08:48:00;97310;;;13.6;55.0
23253;BME280;11795;47.054;15.408;2023-03-22T08:50:00;97300;;;13.7;54.8
23253;BME280;11795;47.054;15.408;2023-03-22T08:52:00;97300;;;13.7;54.3
23253;BME280;11795;47.054;15.408;2023-03-22T08:54:01;97300;;;13.9;54.3
23253;BME280;11795;47.054;15.408;2023-03-22T08:56:01;97290;;;13.9;54.5
23253;BME280;11795;47.054;15.408;2023-03-22T08:58:01;97290;;;14.1;53.7
23253;BME280;11795;47.054;15.408;2023-03-22T09:00:00;97290;;;14.1;53.4
23253;BME280;11795;47.054;15.408;2023-03-22T09:02:00;97290;;;14.2;53.3
23253;BME280;11795;47.054;15.408;2023-03-22T09:04:00;97280;;;14.4;53.0
23253;BME280;11795;47.054;15.408;2023-03-22T09:06:00;97280;;;14.4;53.0
23253;BME280;11795;47.054;15.408;2023-03-22T09:08:01;97280;;;14.6;52.0
23253;BME280;11795;47.054;15.408;2023-03-22T09:10:00;97280;;;14.6;52.1
23253;BME280;11795;47.054;15.408;2023-03-22T09:12:00;97290;;;14.6;52.0
23253;BME280;11795;47.054;15.408;2023-03-22T09:14:00;97280;;;14.8;51.2
23253;BME280;11795;47.054;15.408;2023-03-22T09:16:00;97280;;;14.8;51.5
23253;BME280;11795;47.054;15.408;2023-03-22T09:18:00;97270;;;15.1;51.3
23253;BME280;11795;47.054;15.408;2023-03-22T09:20:00;97280;;;15.3;50.5
23253;BME280;11795;47.054;15.408;2023-03-22T09:22:00;97280;;;15.4;50.3
23253;BME280;11795;47.054;15.408;2023-03-22T09:24:00;97280;;;15.7;50.1
23253;BME280;11795;47.054;15.408;2023-03-22T09:26:01;97280;;;15.9;50.4
23253;BME280;11795;47.054;15.408;2023-03-22T09:28:00;97270;;;16.3;49.5
23253;BME280;11795;47.054;15.408;2023-03-22T09:30:00;97270;;;16.7;49.8
23253;BME280;11795;47.054;15.408;2023-03-22T09:32:00;97270;;;16.8;48.0
23253;BME280;11795;47.054;15.408;2023-03-22T09:34:00;97270;;;17.1;48.1
23253;BME280;11795;47.054;15.408;2023-03-22T09:36:01;97270;;;17.2;47.9
23253;BME280;11795;47.054;15.408;2023-03-22T09:38:02;97270;;;17.4;47.0
23253;BME280;11795;47.054;15.408;2023-03-22T09:40:00;97270;;;17.4;46.2
23253;BME280;11795;47.054;15.408;2023-03-22T09:42:03;97270;;;17.0;45.8
23253;BME280;11795;47.054;15.408;2023-03-22T09:44:03;97260;;;17.0;46.5
23253;BME280;11795;47.054;15.408;2023-03-22T09:46:02;97260;;;16.8;46.8
23253;BME280;11795;47.054;15.408;2023-03-22T09:48:03;97260;;;16.9;47.7
23253;BME280;11795;47.054;15.408;2023-03-22T09:50:06;97260;;;17.1;46.7
23253;BME280;11795;47.054;15.408;2023-03-22T09:52:01;97260;;;17.1;46.7
23253;BME280;11795;47.054;15.408;2023-03-22T09:54:00;97260;;;17.6;45.4
23253;BME280;11795;47.054;15.408;2023-03-22T09:56:06;97250;;;17.7;45.1
23253;BME280;11795;47.054;15.408;2023-03-22T09:58:05;97260;;;17.9;44.4
23253;BME280;11795;47.054;15.408;2023-03-22T10:00:06;97250;;;18.2;44.8
23253;BME280;11795;47.054;15.408;2023-03-22T10:02:06;97250;;;18.3;43.5
23253;BME280;11795;47.054;15.408;2023-03-22T10:04:09;97240;;;18.4;42.8
23253;BME280;11795;47.054;15.408;2023-03-22T10:06:02;97240;;;18.6;43.4
23253;BME280;11795;47.054;15.408;2023-03-22T10:08:10;97240;;;18.8;42.4
23253;BME280;11795;47.054;15.408;2023-03-22T10:10:06;97230;;;19.1;43.0
23253;BME280;11795;47.054;15.408;2023-03-22T10:12:07;97230;;;19.4;42.7
23253;BME280;11795;47.054;15.408;2023-03-22T10:14:05;97230;;;19.7;41.7
23253;BME280;11795;47.054;15.408;2023-03-22T10:16:02;97220;;;19.9;42.0
23253;BME280;11795;47.054;15.408;2023-03-22T10:18:04;97220;;;20.1;41.1
23253;BME280;11795;47.054;15.408;2023-03-22T10:20:05;97220;;;20.3;40.8
23253;BME280;11795;47.054;15.408;2023-03-22T10:22:02;97220;;;20.4;40.0
23253;BME280;11795;47.054;15.408;2023-03-22T10:24:13;97210;;;20.4;38.8
23253;BME280;11795;47.054;15.408;2023-03-22T10:26:01;97220;;;20.5;39.2
23253;BME280;11795;47.054;15.408;2023-03-22T10:28:01;97220;;;20.5;38.6
23253;BME280;11795;47.054;15.408;2023-03-22T10:30:06;97220;;;20.6;37.6
23253;BME280;11795;47.054;15.408;2023-03-22T10:32:12;97220;;;20.5;38.4
23253;BME280;11795;47.054;15.408;2023-03-22T10:34:03;97210;;;20.7;38.2
23253;BME280;11795;47.054;15.408;2023-03-22T10:36:02;97210;;;20.7;37.5
23253;BME280;11795;47.054;15.408;2023-03-22T10:38:04;97210;;;20.6;37.5
23253;BME280;11795;47.054;15.408;2023-03-22T10:40:02;97210;;;20.5;37.2
23253;BME280;11795;47.054;15.408;2023-03-22T10:42:02;97210;;;20.4;37.2
23253;BME280;11795;47.054;15.408;2023-03-22T10:44:04;97210;;;20.6;37.9
23253;BME280;11795;47.054;15.408;2023-03-22T10:46:02;97210;;;20.6;37.6
23253;BME280;11795;47.054;15.408;2023-03-22T10:48:03;97210;;;20.6;37.5
23253;BME280;11795;47.054;15.408;2023-03-22T10:50:06;97210;;;20.8;37.3
23253;BME280;11795;47.054;15.408;2023-03-22T10:52:03;97210;;;20.8;37.0
23253;BME280;11795;47.054;15.408;2023-03-22T10:54:01;97210;;;20.7;37.1
23253;BME280;11795;47.054;15.408;2023-03-22T10:56:00;97210;;;20.5;38.7
23253;BME280;11795;47.054;15.408;2023-03-22T10:58:11;97200;;;20.5;38.1
23253;BME280;11795;47.054;15.408;2023-03-22T11:00:03;97200;;;20.7;38.3
23253;BME280;11795;47.054;15.408;2023-03-22T11:02:00;97200;;;21.0;37.5
23253;BME280;11795;47.054;15.408;2023-03-22T11:04:05;97200;;;21.1;36.3
23253;BME280;11795;47.054;15.408;2023-03-22T11:06:03;97200;;;20.9;36.4
23253;BME280;11795;47.054;15.408;2023-03-22T11:08:01;97190;;;20.9;37.3
23253;BME280;11795;47.054;15.408;2023-03-22T11:10:11;97190;;;21.1;36.9
23253;BME280;11795;47.054;15.408;2023-03-22T11:12:01;97190;;;21.1;37.0
23253;BME280;11795;47.054;15.408;2023-03-22T11:14:04;97190;;;21.5;36.7
23253;BME280;11795;47.054;15.408;2023-03-22T11:16:01;97190;;;21.6;37.0
23253;BME280;11795;47.054;15.408;2023-03-22T11:18:04;97190;;;21.6;36.9
23253;BME280;11795;47.054;15.408;2023-03-22T11:20:03;97190;;;21.6;35.8
23253;BME280;11795;47.054;15.408;2023-03-22T11:22:02;97180;;;21.7;36.3
23253;BME280;11795;47.054;15.408;2023-03-22T11:24:03;97180;;;21.8;35.2